Time;durP1;ratioP1;P1;durP2;ratioP2;P2;SDS_P1;SDS_P2;PMS_P1;PMS_P2;Temp;Humidity;BMP_temperature;BMP_pressure;BME280_temperature;BME280_humidity;BME280_pressure;Samples;Min_cycle;Max_cycle;Signal;HPM_P1;HPM_P2
2020/12/01 00:00:16;;;;;;;2.72;2.20;;;22.10;34.60;;;;;;5031122;28;20420;-54
2020/12/01 00:02:42;;;;;;;3.40;2.10;;;22.10;34.60;;;;;;5033985;28;20036;-51
2020/12/01 00:05:09;;;;;;;2.85;2.22;;;22.10;34.70;;;;;;5034907;28;20345;-55
2020/12/01 00:07:35;;;;;;;3.20;2.30;;;22.10;34.70;;;;;;5026228;28;20041;-50
2020/12/01 00:10:01;;;;;;;3.08;2.20;;;22.10;34.70;;;;;;5037764;28;20356;-55
2020/12/01 00:12:27;;;;;;;2.80;2.17;;;22.10;35.40;;;;;;5034455;28;20076;-52
2020/12/01 00:14:53;;;;;;;2.13;1.88;;;22.10;34.80;;;;;;5037364;28;20057;-55
2020/12/01 00:17:18;;;;;;;2.90;2.05;;;22.00;34.80;;;;;;5026810;28;20136;-54
2020/12/01 00:19:44;;;;;;;2.35;2.00;;;22.10;34.90;;;;;;5017391;28;20160;-53
2020/12/01 00:22:10;;;;;;;2.42;2.10;;;22.00;34.80;;;;;;5016807;28;20125;-53
2020/12/01 00:24:36;;;;;;;2.92;2.38;;;22.00;34.90;;;;;;4998535;28;20091;-54
2020/12/01 00:27:01;;;;;;;2.90;1.98;;;22.00;34.90;;;;;;4999463;28;20045;-54
2020/12/01 00:29:27;;;;;;;2.80;2.38;;;22.00;35.00;;;;;;5017221;28;20319;-54
2020/12/01 00:31:53;;;;;;;2.88;2.10;;;22.00;35.00;;;;;;5013266;28;20034;-52
2020/12/01 00:34:18;;;;;;;2.80;2.15;;;22.00;35.00;;;;;;5010631;28;20057;-55
2020/12/01 00:36:44;;;;;;;2.72;2.20;;;22.00;35.00;;;;;;4996021;28;20101;-53
2020/12/01 00:39:12;;;;;;;2.95;2.13;;;22.00;35.10;;;;;;5017142;28;20025;-52
2020/12/01 00:41:38;;;;;;;2.95;2.00;;;21.90;35.00;;;;;;5015431;28;20373;-50
2020/12/01 00:44:04;;;;;;;2.30;2.00;;;21.90;35.10;;;;;;5015059;28;20104;-51
2020/12/01 00:46:31;;;;;;;3.03;2.10;;;21.90;35.10;;;;;;5012853;28;20096;-54
2020/12/01 00:48:57;;;;;;;3.17;2.30;;;21.90;35.20;;;;;;5015547;28;20029;-49
2020/12/01 00:51:24;;;;;;;2.28;2.05;;;21.90;35.20;;;;;;4999021;28;20018;-54
2020/12/01 00:53:50;;;;;;;2.40;1.92;;;21.90;35.20;;;;;;5015803;28;20885;-53
2020/12/01 00:56:23;;;;;;;2.75;2.08;;;21.90;35.20;;;;;;5016481;28;20104;-51
2020/12/01 00:58:49;;;;;;;2.45;2.03;;;21.90;35.30;;;;;;5002417;28;20092;-52
2020/12/01 01:01:27;;;;;;;2.58;2.00;;;21.90;35.30;;;;;;4987640;28;20066;-51
2020/12/01 01:03:55;;;;;;;2.70;2.15;;;21.80;35.90;;;;;;4995929;28;20057;-53
2020/12/01 01:06:21;;;;;;;2.47;1.88;;;21.80;35.30;;;;;;5015591;28;20038;-54
2020/12/01 01:08:47;;;;;;;2.35;1.60;;;21.80;35.30;;;;;;5017013;28;20053;-53
2020/12/01 01:11:12;;;;;;;2.20;1.83;;;21.80;35.40;;;;;;5012260;28;20030;-53
2020/12/01 01:13:39;;;;;;;2.33;1.85;;;21.80;35.40;;;;;;5016645;28;20030;-54
2020/12/01 01:16:06;;;;;;;2.38;1.92;;;21.80;35.40;;;;;;5006436;28;20434;-52
2020/12/01 01:18:32;;;;;;;2.25;1.73;;;21.80;35.50;;;;;;5033629;28;20120;-53
2020/12/01 01:20:57;;;;;;;2.25;1.58;;;21.80;35.50;;;;;;5029217;28;20034;-56
2020/12/01 01:23:23;;;;;;;2.10;1.65;;;21.80;35.60;;;;;;5035190;28;20030;-55
2020/12/01 01:25:49;;;;;;;1.90;1.63;;;21.80;35.60;;;;;;5036769;28;20029;-54
2020/12/01 01:28:15;;;;;;;2.10;1.50;;;21.80;35.60;;;;;;5034119;28;20034;-51
2020/12/01 01:30:41;;;;;;;1.48;1.30;;;21.80;35.70;;;;;;5033262;28;20072;-53
2020/12/01 01:33:11;;;;;;;2.00;1.65;;;21.80;35.70;;;;;;5032532;28;20123;-51
2020/12/01 01:35:38;;;;;;;2.90;1.70;;;21.80;35.70;;;;;;5035863;28;20131;-55
2020/12/01 01:38:06;;;;;;;2.22;1.50;;;21.80;35.80;;;;;;5030688;28;20353;-52
2020/12/01 01:40:33;;;;;;;2.95;1.58;;;21.80;35.80;;;;;;5017143;28;20048;-53
2020/12/01 01:43:00;;;;;;;1.40;1.30;;;21.80;35.80;;;;;;5035424;28;20041;-54
2020/12/01 01:45:40;;;;;;;2.28;1.55;;;21.70;35.70;;;;;;5035968;28;20037;-54
2020/12/01 01:48:21;;;;;;;2.00;1.60;;;21.70;35.70;;;;;;5035579;28;20068;-53
2020/12/01 01:51:05;;;;;;;1.85;1.50;;;21.70;35.80;;;;;;5035700;28;20443;-54
2020/12/01 01:53:35;;;;;;;2.27;1.50;;;21.70;35.80;;;;;;5029765;28;20037;-50
2020/12/01 01:56:05;;;;;;;1.60;1.42;;;21.70;35.80;;;;;;5025960;28;20341;-51
2020/12/01 01:58:36;;;;;;;1.88;1.40;;;21.70;35.80;;;;;;5034569;28;20457;-51
2020/12/01 02:01:10;;;;;;;1.75;1.40;;;21.70;35.90;;;;;;5017873;28;20036;-54
2020/12/01 02:03:44;;;;;;;2.15;1.50;;;21.70;35.90;;;;;;5034666;28;20033;-52
2020/12/01 02:06:24;;;;;;;1.65;1.20;;;21.60;35.90;;;;;;5015875;28;20037;-53
2020/12/01 02:09:08;;;;;;;2.10;1.30;;;21.60;35.80;;;;;;5026878;28;20376;-53
2020/12/01 02:11:37;;;;;;;2.83;1.20;;;21.60;35.90;;;;;;5035103;28;20022;-51
2020/12/01 02:14:26;;;;;;;1.67;1.27;;;21.60;35.90;;;;;;5033365;28;20069;-51
2020/12/01 02:17:12;;;;;;;2.53;1.50;;;21.60;35.90;;;;;;5034581;28;20049;-53
2020/12/01 02:19:38;;;;;;;2.15;1.60;;;21.60;35.90;;;;;;5021369;28;20034;-52
2020/12/01 02:22:06;;;;;;;2.70;1.48;;;21.60;35.90;;;;;;5027847;28;20126;-52
2020/12/01 02:24:32;;;;;;;1.92;1.23;;;21.60;35.90;;;;;;5016734;28;20057;-55
2020/12/01 02:27:00;;;;;;;1.38;1.27;;;21.50;35.90;;;;;;5033929;28;20118;-52
2020/12/01 02:29:32;;;;;;;2.10;1.20;;;21.50;35.90;;;;;;5015749;28;20226;-53
2020/12/01 02:31:58;;;;;;;1.90;1.20;;;21.50;35.90;;;;;;5032746;28;20061;-52
2020/12/01 02:34:41;;;;;;;2.03;1.23;;;21.50;35.90;;;;;;5034507;28;20021;-53
2020/12/01 02:37:08;;;;;;;1.48;1.10;;;21.50;35.90;;;;;;5030320;28;20424;-52
2020/12/01 02:39:34;;;;;;;1.80;1.30;;;21.50;35.90;;;;;;5021729;28;20040;-50
2020/12/01 02:42:04;;;;;;;1.75;1.30;;;21.50;35.90;;;;;;5032210;28;20035;-50
2020/12/01 02:44:31;;;;;;;1.98;1.38;;;21.50;35.90;;;;;;5034683;28;20472;-51
2020/12/01 02:47:00;;;;;;;1.75;1.20;;;21.50;36.00;;;;;;5034266;28;20441;-54
2020/12/01 02:49:26;;;;;;;1.58;1.15;;;21.50;36.00;;;;;;5034396;28;20033;-54
2020/12/01 02:51:52;;;;;;;2.05;1.40;;;21.50;36.00;;;;;;5023900;28;20033;-52
2020/12/01 02:54:17;;;;;;;1.73;1.30;;;21.50;36.00;;;;;;5039293;28;20037;-53
2020/12/01 02:56:45;;;;;;;1.88;1.10;;;21.50;36.00;;;;;;5040576;28;20043;-54
2020/12/01 02:59:15;;;;;;;2.00;1.20;;;21.50;36.00;;;;;;5032993;28;20022;-53
2020/12/01 03:01:41;;;;;;;1.33;1.10;;;21.50;36.00;;;;;;5034687;28;20037;-52
2020/12/01 03:04:07;;;;;;;2.65;1.10;;;21.50;36.00;;;;;;5028001;28;20037;-52
2020/12/01 03:06:32;;;;;;;2.08;1.10;;;21.40;36.00;;;;;;5014847;28;20052;-51
2020/12/01 03:08:58;;;;;;;2.22;1.08;;;21.50;36.00;;;;;;5026746;28;20030;-54
2020/12/01 03:11:25;;;;;;;1.58;1.10;;;21.50;36.00;;;;;;5028222;28;20349;-53
2020/12/01 03:13:51;;;;;;;1.80;1.15;;;21.40;36.00;;;;;;5033362;28;20084;-51
2020/12/01 03:16:16;;;;;;;2.20;1.08;;;21.40;36.00;;;;;;5034638;28;20042;-56
2020/12/01 03:18:44;;;;;;;1.70;1.00;;;21.50;36.10;;;;;;5014366;28;20199;-51
2020/12/01 03:21:14;;;;;;;1.33;0.90;;;21.40;36.00;;;;;;5009581;28;20044;-55
2020/12/01 03:23:43;;;;;;;1.85;0.90;;;21.40;36.00;;;;;;5014105;28;20034;-54
2020/12/01 03:26:11;;;;;;;2.72;1.50;;;21.40;36.10;;;;;;4996707;28;20061;-53
2020/12/01 03:28:37;;;;;;;1.40;0.93;;;21.40;36.10;;;;;;5014021;28;20460;-54
2020/12/01 03:31:03;;;;;;;3.83;1.30;;;21.40;36.10;;;;;;5013426;28;20100;-53
2020/12/01 03:33:29;;;;;;;1.60;0.95;;;21.40;36.10;;;;;;5014322;28;20341;-53
2020/12/01 03:35:55;;;;;;;1.60;1.00;;;21.40;36.10;;;;;;5013652;28;20041;-55
2020/12/01 03:38:21;;;;;;;2.20;1.00;;;21.40;36.10;;;;;;5015871;28;20117;-51
2020/12/01 03:40:47;;;;;;;1.70;1.00;;;21.30;36.10;;;;;;5015204;28;20433;-53
2020/12/01 03:43:13;;;;;;;2.58;1.02;;;21.30;36.10;;;;;;5018120;28;20030;-51
2020/12/01 03:45:39;;;;;;;1.77;1.10;;;21.30;36.10;;;;;;4998580;28;20388;-56
2020/12/01 03:48:05;;;;;;;2.20;1.05;;;21.30;36.10;;;;;;5017766;28;20412;-53
2020/12/01 03:50:31;;;;;;;2.28;1.08;;;21.30;36.10;;;;;;5005779;28;20034;-49
2020/12/01 03:52:57;;;;;;;1.42;0.93;;;21.30;36.10;;;;;;5002929;28;20464;-51
2020/12/01 03:55:25;;;;;;;1.63;0.90;;;21.30;36.10;;;;;;5017453;28;20109;-49
2020/12/01 03:57:52;;;;;;;1.30;0.90;;;21.30;36.10;;;;;;5017840;28;20128;-52
2020/12/01 04:00:23;;;;;;;1.13;0.85;;;21.30;36.10;;;;;;4997256;28;20022;-50
2020/12/01 04:02:49;;;;;;;1.90;0.93;;;21.30;36.20;;;;;;5017728;28;20349;-50
2020/12/01 04:05:18;;;;;;;1.58;0.77;;;21.30;36.20;;;;;;5014435;28;20022;-50
2020/12/01 04:07:44;;;;;;;1.30;0.80;;;21.30;36.20;;;;;;5015973;28;20026;-49
2020/12/01 04:10:14;;;;;;;2.15;1.08;;;21.30;36.20;;;;;;5017759;28;20449;-48
2020/12/01 04:12:40;;;;;;;1.15;0.85;;;21.30;36.20;;;;;;5016932;28;20030;-50
2020/12/01 04:15:06;;;;;;;2.45;0.95;;;21.30;36.20;;;;;;5017993;28;20092;-55
2020/12/01 04:17:32;;;;;;;2.42;1.08;;;21.30;36.20;;;;;;5025512;28;20053;-54
2020/12/01 04:19:58;;;;;;;2.47;0.98;;;21.30;36.30;;;;;;5037346;28;20109;-52
2020/12/01 04:22:24;;;;;;;1.58;0.90;;;21.20;36.20;;;;;;5031706;28;20491;-51
2020/12/01 04:24:50;;;;;;;1.15;1.00;;;21.30;36.30;;;;;;5035814;28;20033;-53
2020/12/01 04:27:16;;;;;;;2.08;0.82;;;21.20;36.20;;;;;;5036901;28;20029;-52
2020/12/01 04:29:42;;;;;;;1.27;0.82;;;21.30;36.30;;;;;;5001168;28;20456;-53
2020/12/01 04:32:08;;;;;;;1.67;1.00;;;21.20;36.30;;;;;;5035814;28;20034;-50
2020/12/01 04:34:35;;;;;;;1.45;0.88;;;21.20;36.30;;;;;;5037422;28;20451;-49
2020/12/01 04:37:02;;;;;;;1.52;0.82;;;21.20;36.30;;;;;;5020343;28;20342;-48
2020/12/01 04:39:28;;;;;;;0.88;0.65;;;21.20;36.30;;;;;;5019481;28;20096;-51
2020/12/01 04:41:54;;;;;;;1.92;0.80;;;21.20;36.30;;;;;;5033390;28;20065;-53
2020/12/01 04:44:36;;;;;;;2.03;0.80;;;21.20;36.30;;;;;;5036621;28;20025;-49
2020/12/01 04:47:07;;;;;;;1.50;0.80;;;21.20;36.30;;;;;;5020554;28;20450;-51
2020/12/01 04:49:39;;;;;;;2.00;0.80;;;21.20;36.30;;;;;;5035728;28;20038;-51
2020/12/01 04:52:34;;;;;;;1.35;0.90;;;21.20;36.40;;;;;;5026730;28;20037;-52
2020/12/01 04:55:13;;;;;;;1.52;0.73;;;21.20;36.40;;;;;;5030686;28;20053;-49
2020/12/01 04:58:21;;;;;;;1.15;0.75;;;21.20;36.40;;;;;;5035178;28;20033;-57
2020/12/01 05:01:07;;;;;;;1.55;0.73;;;21.20;36.40;;;;;;5036384;28;20432;-55
2020/12/01 05:03:53;;;;;;;1.55;0.88;;;21.10;36.40;;;;;;5036116;28;20376;-51
2020/12/01 05:06:42;;;;;;;1.13;0.70;;;21.10;36.40;;;;;;5033589;28;20035;-53
2020/12/01 05:09:17;;;;;;;1.83;0.85;;;21.20;36.40;;;;;;4999247;28;20034;-52
2020/12/01 05:11:55;;;;;;;1.92;0.88;;;21.10;36.40;;;;;;5033193;28;20033;-48
2020/12/01 05:14:42;;;;;;;1.15;0.80;;;21.10;36.50;;;;;;5036491;28;20075;-53
2020/12/01 05:17:26;;;;;;;1.30;0.65;;;21.10;36.50;;;;;;5013039;28;20053;-52
2020/12/01 05:19:52;;;;;;;1.63;0.93;;;21.10;36.50;;;;;;5013075;28;20056;-51
2020/12/01 05:22:20;;;;;;;1.65;0.70;;;21.10;36.50;;;;;;5015829;28;20416;-50
2020/12/01 05:24:51;;;;;;;1.67;0.80;;;21.10;36.50;;;;;;5011262;28;20400;-52
2020/12/01 05:27:23;;;;;;;1.10;0.70;;;21.10;36.50;;;;;;5016330;28;20037;-54
2020/12/01 05:30:11;;;;;;;1.77;0.70;;;21.10;36.50;;;;;;5015933;28;20518;-50
2020/12/01 05:32:42;;;;;;;1.65;0.60;;;21.10;36.50;;;;;;5015933;28;20072;-49
2020/12/01 05:35:13;;;;;;;1.30;0.70;;;21.10;36.60;;;;;;5006231;28;20441;-53
2020/12/01 05:37:39;;;;;;;2.03;0.82;;;21.10;36.60;;;;;;5002263;28;20034;-56
2020/12/01 05:40:07;;;;;;;1.83;0.68;;;21.10;36.60;;;;;;4998877;28;20045;-53
2020/12/01 05:42:41;;;;;;;0.95;0.55;;;21.00;36.60;;;;;;5003377;28;20057;-51
2020/12/01 05:45:07;;;;;;;1.45;0.60;;;21.10;36.60;;;;;;5015342;28;20441;-54
2020/12/01 05:47:43;;;;;;;1.35;0.65;;;21.00;36.60;;;;;;5009268;28;20034;-52
2020/12/01 05:50:19;;;;;;;1.38;0.80;;;21.00;36.60;;;;;;5000246;28;20437;-52
2020/12/01 05:52:48;;;;;;;1.15;0.65;;;21.00;36.60;;;;;;5009888;28;20049;-53
2020/12/01 05:55:25;;;;;;;2.13;0.82;;;21.00;36.60;;;;;;5015591;28;20036;-49
2020/12/01 05:58:05;;;;;;;1.33;0.80;;;21.00;36.60;;;;;;5008243;28;20120;-53
2020/12/01 06:00:37;;;;;;;1.58;0.75;;;21.00;36.60;;;;;;5005046;28;20030;-52
2020/12/01 06:03:11;;;;;;;1.30;0.73;;;21.00;36.60;;;;;;5005714;28;20038;-51
2020/12/01 06:05:37;;;;;;;;;;;21.00;36.60;;;;;;5016380;28;20037;-52
2020/12/01 06:08:10;;;;;;;1.70;0.55;;;21.00;36.70;;;;;;5014316;28;19920;-53
2020/12/01 06:10:41;;;;;;;1.05;0.77;;;21.00;36.70;;;;;;5016469;28;20052;-51
2020/12/01 06:13:33;;;;;;;1.73;0.60;;;21.00;36.70;;;;;;4982445;28;20113;-49
2020/12/01 06:16:07;;;;;;;2.08;0.70;;;21.00;36.70;;;;;;4996350;28;20084;-50
2020/12/01 06:18:59;;;;;;;1.08;0.70;;;21.00;36.70;;;;;;5005747;28;20576;-53
2020/12/01 06:21:55;;;;;;;1.08;0.50;;;21.00;36.70;;;;;;5005355;28;20045;-54
2020/12/01 06:24:47;;;;;;;1.27;0.70;;;21.00;36.70;;;;;;5015359;28;20034;-53
2020/12/01 06:28:01;;;;;;;0.90;0.52;;;21.00;36.80;;;;;;5014097;28;20025;-51
2020/12/01 06:30:42;;;;;;;2.13;0.50;;;21.00;36.80;;;;;;4985279;28;20074;-55
2020/12/01 06:33:29;;;;;;;1.45;0.55;;;20.90;36.70;;;;;;5011112;28;20346;-51
2020/12/01 06:36:10;;;;;;;2.47;0.90;;;20.90;36.80;;;;;;5014780;28;20025;-54
2020/12/01 06:38:41;;;;;;;1.45;0.50;;;20.90;36.80;;;;;;4998670;28;20056;-50
2020/12/01 06:41:14;;;;;;;1.75;0.63;;;21.00;36.80;;;;;;5005948;28;20140;-51
2020/12/01 06:43:46;;;;;;;1.30;0.75;;;20.90;36.80;;;;;;4999755;28;20034;-54
2020/12/01 06:46:42;;;;;;;1.08;0.43;;;20.90;36.80;;;;;;4995410;28;20045;-53
2020/12/01 06:49:14;;;;;;;1.33;0.68;;;20.90;36.80;;;;;;5012794;28;20469;-56
2020/12/01 06:51:44;;;;;;;1.52;0.60;;;20.90;36.90;;;;;;5013607;28;20068;-54
2020/12/01 06:54:13;;;;;;;0.90;0.70;;;20.90;36.90;;;;;;4996476;28;20035;-53
2020/12/01 06:56:39;;;;;;;1.50;0.70;;;20.90;36.90;;;;;;4995703;28;20461;-51
2020/12/01 06:59:09;;;;;;;1.73;0.68;;;20.90;36.90;;;;;;5014410;28;20120;-52
2020/12/01 07:01:36;;;;;;;1.38;0.52;;;20.90;36.90;;;;;;5013584;28;20449;-61
2020/12/01 07:04:07;;;;;;;1.23;0.60;;;20.90;36.90;;;;;;5014391;28;20168;-54
2020/12/01 07:06:59;;;;;;;0.98;0.60;;;20.90;37.00;;;;;;5013837;28;20448;-51
2020/12/01 07:09:28;;;;;;;1.10;0.50;;;20.90;37.00;;;;;;4993182;28;20052;-53
2020/12/01 07:12:17;;;;;;;1.00;0.50;;;20.90;37.00;;;;;;5013048;28;20026;-52
2020/12/01 07:15:27;;;;;;;1.67;0.73;;;20.90;37.10;;;;;;4995057;28;20034;-53
2020/12/01 07:18:04;;;;;;;0.95;0.47;;;20.90;37.10;;;;;;4992248;28;20077;-55
2020/12/01 07:20:38;;;;;;;1.75;0.70;;;20.90;37.10;;;;;;5014876;28;20041;-51
2020/12/01 07:23:28;;;;;;;1.00;0.47;;;20.80;37.10;;;;;;5033077;28;20033;-50
2020/12/01 07:26:02;;;;;;;1.08;0.60;;;20.90;37.10;;;;;;5030108;28;20326;-53
2020/12/01 07:28:36;;;;;;;0.93;0.50;;;20.80;37.10;;;;;;5023241;28;20148;-54
2020/12/01 07:31:18;;;;;;;2.00;0.60;;;20.90;37.20;;;;;;5030310;28;20026;-53
2020/12/01 07:33:51;;;;;;;1.58;0.68;;;20.80;37.20;;;;;;5031370;28;20678;-52
2020/12/01 07:36:40;;;;;;;0.52;0.30;;;20.90;37.20;;;;;;5034361;28;20037;-53
2020/12/01 07:39:09;;;;;;;1.25;0.57;;;20.80;37.20;;;;;;5032835;28;20048;-54
2020/12/01 07:41:43;;;;;;;0.77;0.40;;;20.80;37.30;;;;;;5029756;28;20441;-54
2020/12/01 07:44:11;;;;;;;2.47;0.50;;;20.80;37.30;;;;;;5031099;28;20421;-52
2020/12/01 07:49:26;;;;;;;0.90;0.50;;;20.90;37.70;;;;;;5029872;28;20040;-52
2020/12/01 07:52:04;;;;;;;1.30;0.68;;;21.00;37.90;;;;;;5015094;28;20088;-56
2020/12/01 07:54:31;;;;;;;1.20;0.43;;;21.00;37.80;;;;;;5029725;28;20113;-56
2020/12/01 07:56:57;;;;;;;2.40;0.40;;;21.10;37.80;;;;;;5033131;28;20120;-52
2020/12/01 07:59:23;;;;;;;1.02;0.40;;;21.20;37.80;;;;;;5027632;28;20116;-54
2020/12/01 08:01:49;;;;;;;1.52;0.50;;;21.30;37.80;;;;;;5031345;28;20091;-55
2020/12/01 08:04:18;;;;;;;4.00;0.60;;;21.40;37.70;;;;;;5027555;28;20033;-51
2020/12/01 08:06:44;;;;;;;0.50;0.30;;;21.50;37.60;;;;;;5033215;28;20344;-53
2020/12/01 08:09:21;;;;;;;0.93;0.40;;;21.60;37.50;;;;;;5029343;28;20109;-57
2020/12/01 08:11:48;;;;;;;0.98;0.40;;;21.70;37.30;;;;;;5034129;28;20037;-52
2020/12/01 08:14:15;;;;;;;1.48;0.60;;;21.80;37.20;;;;;;5034897;28;20025;-49
2020/12/01 08:16:43;;;;;;;2.03;0.60;;;21.90;37.10;;;;;;5032783;28;20038;-52
2020/12/01 08:19:12;;;;;;;2.05;0.40;;;22.00;37.00;;;;;;5025745;28;20095;-54
2020/12/01 08:21:42;;;;;;;0.43;0.20;;;22.10;36.90;;;;;;5033024;28;20033;-50
2020/12/01 08:24:18;;;;;;;1.08;0.52;;;22.20;36.80;;;;;;5042375;28;20040;-48
2020/12/01 08:26:46;;;;;;;2.13;0.30;;;22.30;36.80;;;;;;5056474;28;20428;-54
2020/12/01 08:29:19;;;;;;;1.55;0.45;;;22.30;36.60;;;;;;5023173;28;20033;-52
2020/12/01 08:32:02;;;;;;;0.80;0.40;;;22.40;36.60;;;;;;5037169;28;20037;-49
2020/12/01 08:34:40;;;;;;;1.13;0.40;;;22.40;36.50;;;;;;5024269;28;20092;-53
2020/12/01 08:37:26;;;;;;;1.67;0.60;;;22.50;36.40;;;;;;5035459;28;20095;-51
2020/12/01 08:39:58;;;;;;;0.93;0.50;;;22.60;36.30;;;;;;5033560;28;20025;-52
2020/12/01 08:42:30;;;;;;;2.80;0.60;;;22.60;36.30;;;;;;5035520;28;20045;-51
2020/12/01 08:45:22;;;;;;;1.55;0.47;;;22.70;36.20;;;;;;5033944;28;20044;-54
2020/12/01 08:47:48;;;;;;;1.08;0.52;;;22.80;36.10;;;;;;5029207;28;20038;-53
2020/12/01 08:50:26;;;;;;;1.55;0.60;;;22.80;36.10;;;;;;5034454;28;20027;-48
2020/12/01 08:53:13;;;;;;;1.30;0.60;;;22.90;36.00;;;;;;5030319;28;20486;-51
2020/12/01 08:55:42;;;;;;;1.73;0.80;;;22.90;35.90;;;;;;5035858;28;20046;-50
2020/12/01 08:58:34;;;;;;;1.60;0.60;;;23.00;35.90;;;;;;5034139;28;20067;-50
2020/12/01 09:01:12;;;;;;;3.28;0.60;;;23.10;35.90;;;;;;5030737;28;20030;-55
2020/12/01 09:03:51;;;;;;;2.13;0.63;;;23.10;35.80;;;;;;5032580;28;20033;-52
2020/12/01 09:06:34;;;;;;;2.83;0.60;;;23.10;35.70;;;;;;5031772;28;20053;-53
2020/12/01 09:09:07;;;;;;;1.63;0.60;;;23.20;35.70;;;;;;5033835;28;21736;-54
2020/12/01 09:17:03;;;;;;;1.75;0.85;;;23.30;35.60;;;;;;5031210;28;20126;-55
2020/12/01 09:22:35;;;;;;;2.65;0.77;;;23.30;35.50;;;;;;5033927;28;20033;-52
2020/12/01 09:25:07;;;;;;;1.05;0.60;;;23.30;35.40;;;;;;5031315;28;20025;-52
2020/12/01 09:27:34;;;;;;;2.17;0.77;;;23.30;35.40;;;;;;5033344;28;20047;-53
2020/12/01 09:30:00;;;;;;;2.20;0.60;;;23.40;35.40;;;;;;5033829;28;20037;-59
2020/12/01 09:32:28;;;;;;;2.15;0.85;;;23.50;35.30;;;;;;5017120;28;20510;-57
2020/12/01 09:34:54;;;;;;;2.63;0.90;;;23.60;35.10;;;;;;5022724;28;20044;-53
2020/12/01 09:37:20;;;;;;;1.75;0.75;;;23.80;35.00;;;;;;5036058;28;20033;-50
2020/12/01 09:39:46;;;;;;;1.55;0.80;;;24.00;34.90;;;;;;5031921;28;20026;-49
2020/12/01 09:47:19;;;;;;;2.60;0.80;;;24.30;34.50;;;;;;5031690;28;20536;-54
2020/12/01 09:49:45;;;;;;;1.73;0.85;;;24.50;34.30;;;;;;5032651;28;20025;-50
2020/12/01 09:52:16;;;;;;;1.75;0.73;;;24.60;34.20;;;;;;5032733;28;20323;-50
2020/12/01 10:00:47;;;;;;;3.70;0.80;;;24.40;34.10;;;;;;4992561;28;20046;-47
2020/12/01 10:04:32;;;;;;;2.05;0.73;;;24.20;34.20;;;;;;4978391;28;20108;-48
2020/12/01 10:08:48;;;;;;;5.82;1.10;;;24.00;34.40;;;;;;5016278;28;20041;-49
2020/12/01 10:22:36;;;;;;;1.88;0.63;;;23.70;34.60;;;;;;5016825;28;20021;-51
2020/12/01 10:35:24;;;;;;;2.97;0.93;;;23.50;34.60;;;;;;5023920;28;20042;-49
2020/12/01 10:37:57;;;;;;;3.30;0.80;;;23.50;34.70;;;;;;5033414;28;20146;-51
2020/12/01 10:40:26;;;;;;;2.50;0.80;;;23.50;34.70;;;;;;5022938;28;20025;-51
2020/12/01 10:42:52;;;;;;;1.80;0.80;;;23.50;34.70;;;;;;5024395;28;20441;-52
2020/12/01 10:45:20;;;;;;;2.03;0.90;;;23.50;34.80;;;;;;5035475;28;20061;-46
2020/12/01 10:47:45;;;;;;;5.05;1.00;;;23.50;34.80;;;;;;5027455;28;20037;-49
2020/12/01 10:50:12;;;;;;;2.97;0.93;;;23.50;34.80;;;;;;5034080;28;20025;-55
2020/12/01 10:52:38;;;;;;;5.68;0.98;;;23.50;34.80;;;;;;5035053;28;20045;-47
2020/12/01 10:55:05;;;;;;;2.40;0.82;;;23.40;34.80;;;;;;5029089;28;20026;-52
2020/12/01 10:57:31;;;;;;;3.00;1.15;;;23.50;35.00;;;;;;5018706;28;20144;-50
2020/12/01 10:59:56;;;;;;;3.25;1.10;;;23.50;35.00;;;;;;5016745;28;20109;-51
2020/12/01 11:02:23;;;;;;;2.90;0.80;;;23.40;35.00;;;;;;5030019;28;20029;-50
2020/12/01 11:04:48;;;;;;;1.90;0.82;;;23.40;35.00;;;;;;5030690;28;20120;-47
2020/12/01 11:07:14;;;;;;;3.20;1.00;;;23.40;35.00;;;;;;5024108;28;20108;-52
2020/12/01 11:09:40;;;;;;;4.38;1.20;;;23.40;34.90;;;;;;5025028;28;20025;-47
2020/12/01 11:12:06;;;;;;;2.83;0.77;;;23.40;34.90;;;;;;5023345;28;20029;-48
2020/12/01 11:14:32;;;;;;;2.17;0.88;;;23.40;34.90;;;;;;5018560;28;20059;-53
2020/12/01 11:16:57;;;;;;;2.55;0.93;;;23.40;35.50;;;;;;5027258;28;20598;-48
2020/12/01 11:19:23;;;;;;;2.55;0.80;;;23.40;34.90;;;;;;4994652;28;20133;-49
2020/12/01 11:21:49;;;;;;;3.08;1.08;;;23.40;34.90;;;;;;5008507;28;20053;-56
2020/12/01 11:24:14;;;;;;;3.38;0.85;;;23.40;34.90;;;;;;5003769;28;20041;-49
2020/12/01 11:26:40;;;;;;;4.68;1.40;;;23.40;34.90;;;;;;5007592;28;20433;-53
2020/12/01 11:29:06;;;;;;;3.10;1.00;;;23.30;34.90;;;;;;5004640;28;20026;-48
2020/12/01 11:31:32;;;;;;;5.47;0.90;;;23.30;34.90;;;;;;5009580;28;20120;-54
2020/12/01 11:34:10;;;;;;;3.28;0.98;;;23.30;34.90;;;;;;5006681;28;20030;-48
2020/12/01 11:36:38;;;;;;;3.55;1.10;;;23.30;34.90;;;;;;4997478;28;20391;-52
2020/12/01 11:39:06;;;;;;;2.40;0.98;;;23.30;34.90;;;;;;5004184;28;20464;-52
2020/12/01 11:41:32;;;;;;;5.35;1.35;;;23.30;35.00;;;;;;5002441;28;20042;-49
2020/12/01 11:43:58;;;;;;;2.67;1.10;;;23.30;35.20;;;;;;4996170;28;20103;-53
2020/12/01 11:46:24;;;;;;;4.45;1.10;;;23.30;35.40;;;;;;5006525;28;20040;-54
2020/12/01 11:48:50;;;;;;;3.20;1.10;;;23.40;35.50;;;;;;5001244;28;20056;-51
2020/12/01 11:51:16;;;;;;;2.95;1.00;;;23.40;35.60;;;;;;5007610;28;20026;-52
2020/12/01 11:53:43;;;;;;;3.45;1.10;;;23.40;35.60;;;;;;5002473;28;20022;-54
2020/12/01 11:56:10;;;;;;;3.00;1.10;;;23.50;35.60;;;;;;5002951;28;20037;-60
2020/12/01 11:58:36;;;;;;;4.05;1.10;;;23.50;35.60;;;;;;4999635;28;20045;-54
2020/12/01 12:01:03;;;;;;;4.10;1.50;;;23.50;35.40;;;;;;5001758;28;20034;-45
2020/12/01 12:03:29;;;;;;;4.85;0.90;;;23.60;35.40;;;;;;5007277;28;20076;-47
2020/12/01 12:05:54;;;;;;;4.65;0.93;;;23.60;35.50;;;;;;5002641;28;20378;-50
2020/12/01 12:08:21;;;;;;;2.78;1.10;;;23.60;35.60;;;;;;5007137;28;20064;-44
2020/12/01 12:10:47;;;;;;;3.05;1.00;;;23.60;36.20;;;;;;5008251;28;20045;-51
2020/12/01 12:13:12;;;;;;;3.58;1.15;;;23.60;35.60;;;;;;5000669;28;20365;-48
2020/12/01 12:15:38;;;;;;;3.42;0.80;;;23.70;35.60;;;;;;4999063;28;20080;-52
2020/12/01 12:18:04;;;;;;;2.83;1.00;;;23.70;35.50;;;;;;4997372;28;20062;-49
2020/12/01 12:20:31;;;;;;;4.05;1.08;;;23.70;35.70;;;;;;5018581;28;20021;-56
2020/12/01 12:22:57;;;;;;;3.45;1.10;;;23.80;35.90;;;;;;5032330;28;20013;-52
2020/12/01 12:25:22;;;;;;;4.22;1.08;;;23.80;36.00;;;;;;5033362;28;20017;-53
2020/12/01 12:27:48;;;;;;;3.20;0.77;;;23.80;35.90;;;;;;5023901;28;20436;-51
2020/12/01 12:30:14;;;;;;;4.20;1.00;;;23.80;35.90;;;;;;5029865;28;20100;-53
2020/12/01 12:32:40;;;;;;;1.85;0.65;;;23.80;35.80;;;;;;5029370;28;20401;-49
2020/12/01 12:35:07;;;;;;;2.40;0.85;;;23.90;35.70;;;;;;5030175;28;20437;-49
2020/12/01 12:37:32;;;;;;;3.78;1.08;;;23.90;35.60;;;;;;5026999;28;20044;-48
2020/12/01 12:39:58;;;;;;;3.35;1.00;;;23.90;35.60;;;;;;5025128;28;20393;-49
2020/12/01 12:42:24;;;;;;;5.40;1.13;;;23.90;35.50;;;;;;5029550;28;20029;-46
2020/12/01 12:44:50;;;;;;;3.88;1.10;;;23.90;35.60;;;;;;5032523;28;20061;-47
2020/12/01 12:47:16;;;;;;;4.03;1.10;;;23.90;35.70;;;;;;5022450;28;20411;-50
2020/12/01 12:49:42;;;;;;;2.83;1.23;;;23.90;35.70;;;;;;5027024;28;20033;-51
2020/12/01 12:52:08;;;;;;;3.83;1.20;;;24.00;35.90;;;;;;5010557;28;20464;-53
2020/12/01 12:54:34;;;;;;;5.25;1.02;;;24.00;35.90;;;;;;5021232;28;20049;-54
2020/12/01 12:57:00;;;;;;;5.85;1.33;;;24.00;36.10;;;;;;5014634;28;20487;-52
2020/12/01 12:59:25;;;;;;;6.95;1.08;;;24.00;36.20;;;;;;5047961;28;20041;-56
2020/12/01 13:01:51;;;;;;;5.15;1.20;;;24.10;36.40;;;;;;5034446;28;20052;-49
2020/12/01 13:04:18;;;;;;;2.33;0.80;;;24.10;36.70;;;;;;5031731;28;20025;-52
2020/12/01 13:06:43;;;;;;;6.68;1.90;;;24.10;36.80;;;;;;5038944;28;20072;-50
2020/12/01 13:09:10;;;;;;;9.05;1.90;;;24.10;37.00;;;;;;5035765;28;20383;-49
2020/12/01 13:11:36;;;;;;;10.25;1.60;;;24.10;37.20;;;;;;5034403;28;20076;-50
2020/12/01 13:14:01;;;;;;;7.68;1.58;;;24.20;37.30;;;;;;5018826;28;20025;-47
2020/12/01 13:16:27;;;;;;;7.60;1.33;;;24.20;37.20;;;;;;5033712;28;20030;-53
2020/12/01 13:18:53;;;;;;;9.13;1.60;;;24.20;36.90;;;;;;5014014;28;20050;-52
2020/12/01 13:21:19;;;;;;;5.72;1.63;;;24.20;36.70;;;;;;5015311;28;20034;-51
2020/12/01 13:23:45;;;;;;;6.38;1.45;;;24.20;36.50;;;;;;5014772;28;20022;-48
2020/12/01 13:26:11;;;;;;;8.00;1.88;;;24.20;36.50;;;;;;5014232;28;20018;-46
2020/12/01 13:28:37;;;;;;;5.97;1.80;;;24.20;36.40;;;;;;5015711;28;20110;-45
2020/12/01 13:31:03;;;;;;;7.50;1.90;;;24.20;36.20;;;;;;5008566;28;20525;-53
2020/12/01 13:33:29;;;;;;;12.65;1.70;;;24.20;36.00;;;;;;4991347;28;20425;-64
2020/12/01 13:35:55;;;;;;;6.40;2.03;;;24.20;35.20;;;;;;4998116;28;20039;-52
2020/12/01 13:38:20;;;;;;;8.75;2.00;;;24.10;34.50;;;;;;5009559;28;20053;-54
2020/12/01 13:40:46;;;;;;;7.85;2.38;;;24.10;34.80;;;;;;4984378;28;20089;-52
2020/12/01 13:43:12;;;;;;;4.57;1.73;;;24.00;35.00;;;;;;5021270;28;20034;-51
2020/12/01 13:45:38;;;;;;;5.18;1.55;;;24.00;35.20;;;;;;5014742;28;20029;-47
2020/12/01 13:48:04;;;;;;;5.35;1.40;;;24.00;35.60;;;;;;5016563;28;20032;-54
2020/12/01 13:50:30;;;;;;;2.85;1.27;;;24.10;35.80;;;;;;5018457;28;20042;-53